createdAt,value
2018-04-24T00:00:38.604Z,995.4
2018-04-24T00:01:39.266Z,995.4
2018-04-24T00:02:39.916Z,995.4
2018-04-24T00:03:40.575Z,995.4
2018-04-24T00:04:41.226Z,995.4
2018-04-24T00:05:41.882Z,995.4
2018-04-24T00:06:42.538Z,995.4
2018-04-24T00:07:43.193Z,995.4
2018-04-24T00:08:43.848Z,995.4
2018-04-24T00:09:44.587Z,995.4
2018-04-24T00:10:45.162Z,995.4
2018-04-24T00:11:45.815Z,995.4
2018-04-24T00:12:46.470Z,995.4
2018-04-24T00:13:47.126Z,995.4
2018-04-24T00:14:47.781Z,995.4
2018-04-24T00:15:48.437Z,995.4
2018-04-24T00:16:49.129Z,995.4
2018-04-24T00:17:49.782Z,995.4
2018-04-24T00:18:50.440Z,995.4
2018-04-24T00:19:51.095Z,995.4
2018-04-24T00:20:51.752Z,995.3
2018-04-24T00:21:52.444Z,995.3
2018-04-24T00:22:53.135Z,995.3
2018-04-24T00:23:53.796Z,995.3
2018-04-24T00:24:54.446Z,995.3
2018-04-24T00:25:55.102Z,995.3
2018-04-24T00:26:55.757Z,995.3
2018-04-24T00:27:56.415Z,995.3
2018-04-24T00:28:57.106Z,995.2
2018-04-24T00:29:57.762Z,995.2
2018-04-24T00:30:58.417Z,995.3
2018-04-24T00:31:59.073Z,995.3
2018-04-24T00:32:59.730Z,995.3
2018-04-24T00:34:00.388Z,995.3
2018-04-24T00:35:01.048Z,995.3
2018-04-24T00:36:01.736Z,995.4
2018-04-24T00:37:02.394Z,995.3
2018-04-24T00:38:03.049Z,995.4
2018-04-24T00:39:03.707Z,995.3
2018-04-24T00:40:04.395Z,995.3
2018-04-24T00:41:05.053Z,995.4
2018-04-24T00:42:05.746Z,995.3
2018-04-24T00:43:06.435Z,995.4
2018-04-24T00:44:07.092Z,995.3
2018-04-24T00:45:07.747Z,995.4
2018-04-24T00:46:08.408Z,995.3
2018-04-24T00:47:09.096Z,995.3
2018-04-24T00:48:09.753Z,995.3
2018-04-24T00:49:10.411Z,995.3
2018-04-24T00:50:11.064Z,995.3
2018-04-24T00:51:11.756Z,995.3
2018-04-24T00:52:12.411Z,995.4
2018-04-24T00:53:13.067Z,995.4
2018-04-24T00:54:13.721Z,995.4
2018-04-24T00:55:14.379Z,995.4
2018-04-24T00:56:15.036Z,995.4
2018-04-24T00:57:15.690Z,995.4
2018-04-24T00:58:16.344Z,995.4
2018-04-24T00:59:17.005Z,995.4
2018-04-24T01:00:17.660Z,995.4
2018-04-24T01:01:18.311Z,995.3
2018-04-24T01:02:18.966Z,995.3
2018-04-24T01:03:19.622Z,995.3
2018-04-24T01:04:20.283Z,995.4
2018-04-24T01:05:20.970Z,995.3
2018-04-24T01:06:21.625Z,995.4
2018-04-24T01:07:22.282Z,995.4
2018-04-24T01:08:22.937Z,995.4
2018-04-24T01:09:23.592Z,995.4
2018-04-24T01:10:24.251Z,995.4
2018-04-24T01:11:24.942Z,995.5
2018-04-24T01:12:25.636Z,995.4
2018-04-24T01:13:26.289Z,995.4
2018-04-24T01:14:26.946Z,995.4
2018-04-24T01:15:27.600Z,995.5
2018-04-24T01:16:28.256Z,995.4
2018-04-24T01:17:28.911Z,995.4
2018-04-24T01:18:29.568Z,995.5
2018-04-24T01:19:30.223Z,995.5
2018-04-24T01:20:30.881Z,995.5
2018-04-24T01:21:31.533Z,995.5
2018-04-24T01:22:32.278Z,995.5
2018-04-24T01:23:32.874Z,995.5
2018-04-24T01:24:33.530Z,995.5
2018-04-24T01:25:34.188Z,995.5
2018-04-24T01:26:34.842Z,995.5
2018-04-24T01:27:35.507Z,995.5
2018-04-24T01:28:36.153Z,995.5
2018-04-24T01:29:36.813Z,995.5
2018-04-24T01:30:37.501Z,995.6
2018-04-24T01:31:38.156Z,995.6
2018-04-24T01:32:38.813Z,995.6
2018-04-24T01:33:39.468Z,995.6
2018-04-24T01:34:40.124Z,995.5
2018-04-24T01:35:40.778Z,995.5
2018-04-24T01:36:41.436Z,995.5
2018-04-24T01:37:42.126Z,995.5
2018-04-24T01:38:42.781Z,995.5
2018-04-24T01:39:43.438Z,995.5
2018-04-24T01:40:44.094Z,995.5
2018-04-24T01:41:44.748Z,995.5
2018-04-24T01:42:45.405Z,995.4
2018-04-24T01:43:46.062Z,995.5
2018-04-24T01:44:46.751Z,995.5
2018-04-24T01:45:47.408Z,995.4
2018-04-24T01:46:48.063Z,995.5
2018-04-24T01:47:48.769Z,995.4
2018-04-24T01:48:49.427Z,995.4
2018-04-24T01:49:50.081Z,995.5
2018-04-24T01:50:50.737Z,995.5
2018-04-24T01:51:51.392Z,995.5
2018-04-24T01:52:52.048Z,995.4
2018-04-24T01:53:52.703Z,995.4
2018-04-24T01:54:53.363Z,995.4
2018-04-24T01:55:54.014Z,995.4
2018-04-24T01:56:54.676Z,995.4
2018-04-24T01:57:55.328Z,995.4
2018-04-24T01:58:55.981Z,995.4
2018-04-24T01:59:56.635Z,995.4
2018-04-24T02:00:57.331Z,995.4
2018-04-24T02:01:58.022Z,995.3
2018-04-24T02:02:58.678Z,995.3
2018-04-24T02:03:59.333Z,995.4
2018-04-24T02:04:59.989Z,995.3
2018-04-24T02:06:00.643Z,995.4
2018-04-24T02:07:01.299Z,995.4
2018-04-24T02:08:01.956Z,995.4
2018-04-24T02:09:02.613Z,995.4
2018-04-24T02:10:03.268Z,995.4
2018-04-24T02:11:03.924Z,995.4
2018-04-24T02:12:04.578Z,995.4
2018-04-24T02:13:05.235Z,995.4
2018-04-24T02:14:05.891Z,995.4
2018-04-24T02:15:06.545Z,995.4
2018-04-24T02:16:07.199Z,995.3
2018-04-24T02:17:07.856Z,995.4
2018-04-24T02:18:08.510Z,995.3
2018-04-24T02:19:09.166Z,995.4
2018-04-24T02:20:09.820Z,995.4
2018-04-24T02:21:10.476Z,995.4
2018-04-24T02:22:11.132Z,995.3
2018-04-24T02:23:11.788Z,995.4
2018-04-24T02:24:12.441Z,995.4
2018-04-24T02:25:13.096Z,995.4
2018-04-24T02:26:13.751Z,995.4
2018-04-24T02:27:14.406Z,995.4
2018-04-24T02:28:15.059Z,995.4
2018-04-24T02:29:15.715Z,995.4
2018-04-24T02:30:16.370Z,995.4
2018-04-24T02:31:17.025Z,995.3
2018-04-24T02:32:17.679Z,995.3
2018-04-24T02:33:18.338Z,995.4
2018-04-24T02:34:19.025Z,995.3
2018-04-24T02:35:19.679Z,995.4
2018-04-24T02:36:20.337Z,995.3
2018-04-24T02:37:20.992Z,995.4
2018-04-24T02:38:21.644Z,995.4
2018-04-24T02:39:22.298Z,995.3
2018-04-24T02:40:23.075Z,995.4
2018-04-24T02:41:23.610Z,995.3
2018-04-24T02:42:24.265Z,995.3
2018-04-24T02:43:24.919Z,995.3
2018-04-24T02:44:25.575Z,995.4
2018-04-24T02:45:26.231Z,995.4
2018-04-24T02:46:26.885Z,995.4
2018-04-24T02:47:27.539Z,995.4
2018-04-24T02:48:28.196Z,995.4
2018-04-24T02:49:28.851Z,995.4
2018-04-24T02:50:29.505Z,995.4
2018-04-24T02:51:30.160Z,995.4
2018-04-24T02:52:30.816Z,995.4
2018-04-24T02:53:31.470Z,995.4
2018-04-24T02:54:32.126Z,995.3
2018-04-24T02:55:32.782Z,995.3
2018-04-24T02:56:33.440Z,995.4
2018-04-24T02:57:34.093Z,995.3
2018-04-24T02:58:34.746Z,995.3
2018-04-24T02:59:35.402Z,995.3
2018-04-24T03:00:36.058Z,995.3
2018-04-24T03:01:36.712Z,995.2
2018-04-24T03:02:37.367Z,995.2
2018-04-24T03:03:38.072Z,995.3
2018-04-24T03:04:38.728Z,995.2
2018-04-24T03:05:39.385Z,995.2
2018-04-24T03:06:40.074Z,995.2
2018-04-24T03:07:40.729Z,995.2
2018-04-24T03:08:41.385Z,995.2
2018-04-24T03:09:42.040Z,995.2
2018-04-24T03:10:42.698Z,995.2
2018-04-24T03:11:43.351Z,995.2
2018-04-24T03:12:44.004Z,995.2
2018-04-24T03:13:44.661Z,995.2
2018-04-24T03:14:45.315Z,995.3
2018-04-24T03:15:45.970Z,995.2
2018-04-24T03:16:46.624Z,995.2
2018-04-24T03:17:47.285Z,995.2
2018-04-24T03:18:47.985Z,995.1
2018-04-24T03:19:48.640Z,995.2
2018-04-24T03:20:49.298Z,995.2
2018-04-24T03:21:49.988Z,995.1
2018-04-24T03:22:50.643Z,995.2
2018-04-24T03:23:51.298Z,995.1
2018-04-24T03:24:51.953Z,995.1
2018-04-24T03:25:52.608Z,995.2
2018-04-24T03:26:53.263Z,995.2
2018-04-24T03:27:53.917Z,995.1
2018-04-24T03:28:54.571Z,995.1
2018-04-24T03:29:55.228Z,995.1
2018-04-24T03:30:55.884Z,995.1
2018-04-24T03:31:56.538Z,995.1
2018-04-24T03:32:57.192Z,995.1
2018-04-24T03:33:57.849Z,995.1
2018-04-24T03:34:58.507Z,995.1
2018-04-24T03:35:59.162Z,995.1
2018-04-24T03:36:59.850Z,995.1
2018-04-24T03:38:00.508Z,995.1
2018-04-24T03:39:01.162Z,995.0
2018-04-24T03:40:01.818Z,995.0
2018-04-24T03:41:02.474Z,995.0
2018-04-24T03:42:03.129Z,995.0
2018-04-24T03:43:03.783Z,995.0
2018-04-24T03:44:04.489Z,995.0
2018-04-24T03:45:05.145Z,995.0
2018-04-24T03:46:05.839Z,995.0
2018-04-24T03:47:06.497Z,995.1
2018-04-24T03:48:07.152Z,995.0
2018-04-24T03:49:07.857Z,995.0
2018-04-24T03:50:08.514Z,995.0
2018-04-24T03:51:09.169Z,995.1
2018-04-24T03:52:09.827Z,995.1
2018-04-24T03:53:10.483Z,995.2
2018-04-24T03:54:11.174Z,995.1
2018-04-24T03:55:11.867Z,995.1
2018-04-24T03:56:12.522Z,995.2
2018-04-24T03:57:13.258Z,995.1
2018-04-24T03:58:13.834Z,995.1
2018-04-24T03:59:14.492Z,995.1
2018-04-24T04:00:15.147Z,995.1
2018-04-24T04:01:15.803Z,995.0
2018-04-24T04:02:16.497Z,995.1
2018-04-24T04:03:17.154Z,995.0
2018-04-24T04:04:17.811Z,995.0
2018-04-24T04:05:18.472Z,995.0
2018-04-24T04:06:19.126Z,995.0
2018-04-24T04:07:19.784Z,995.0
2018-04-24T04:08:20.440Z,995.0
2018-04-24T04:09:21.097Z,995.1
2018-04-24T04:10:21.756Z,995.1
2018-04-24T04:11:22.411Z,995.1
2018-04-24T04:12:23.068Z,995.0
2018-04-24T04:13:23.764Z,995.0
2018-04-24T04:14:24.422Z,995.0
2018-04-24T04:15:25.115Z,995.0
2018-04-24T04:16:25.773Z,995.0
2018-04-24T04:17:26.430Z,995.0
2018-04-24T04:18:27.090Z,995.0
2018-04-24T04:19:27.747Z,995.0
2018-04-24T04:20:28.405Z,995.0
2018-04-24T04:21:29.064Z,994.9
2018-04-24T04:22:29.739Z,994.9
2018-04-24T04:23:30.381Z,994.9
2018-04-24T04:24:31.040Z,995.0
2018-04-24T04:25:31.697Z,994.9
2018-04-24T04:26:32.358Z,994.9
2018-04-24T04:27:33.014Z,994.9
2018-04-24T04:28:33.673Z,994.9
2018-04-24T04:29:34.371Z,994.9
2018-04-24T04:30:35.031Z,994.9
2018-04-24T04:31:35.688Z,994.9
2018-04-24T04:32:36.347Z,994.9
2018-04-24T04:33:37.007Z,994.9
2018-04-24T04:34:37.666Z,994.9
2018-04-24T04:35:38.330Z,994.9
2018-04-24T04:36:38.995Z,994.9
2018-04-24T04:37:39.684Z,994.9
2018-04-24T04:38:40.342Z,994.9
2018-04-24T04:39:41.003Z,994.9
2018-04-24T04:40:41.661Z,994.9
2018-04-24T04:41:42.321Z,994.9
2018-04-24T04:42:42.981Z,994.8
2018-04-24T04:43:43.640Z,994.9
2018-04-24T04:44:44.298Z,994.9
2018-04-24T04:45:44.958Z,994.8
2018-04-24T04:46:45.620Z,994.8
2018-04-24T04:47:46.281Z,994.8
2018-04-24T04:48:46.939Z,994.8
2018-04-24T04:49:47.600Z,994.8
2018-04-24T04:50:48.260Z,994.8
2018-04-24T04:51:48.920Z,994.7
2018-04-24T04:52:49.580Z,994.7
2018-04-24T04:53:50.240Z,994.7
2018-04-24T04:54:50.900Z,994.7
2018-04-24T04:55:51.561Z,994.7
2018-04-24T04:56:52.224Z,994.7
2018-04-24T04:57:52.883Z,994.7
2018-04-24T04:58:53.543Z,994.7
2018-04-24T04:59:54.204Z,994.8
2018-04-24T05:00:54.863Z,994.7
2018-04-24T05:01:55.523Z,994.7
2018-04-24T05:02:56.182Z,994.7
2018-04-24T05:03:56.843Z,994.8
2018-04-24T05:04:57.506Z,994.8
2018-04-24T05:05:58.164Z,994.8
2018-04-24T05:06:58.822Z,994.8
2018-04-24T05:07:59.482Z,994.7
2018-04-24T05:09:00.143Z,994.7
2018-04-24T05:10:00.803Z,994.7
2018-04-24T05:11:01.466Z,994.6
2018-04-24T05:12:02.210Z,994.6
2018-04-24T05:13:02.789Z,994.6
2018-04-24T05:14:03.484Z,994.6
2018-04-24T05:15:04.144Z,994.6
2018-04-24T05:16:04.803Z,994.6
2018-04-24T05:17:05.464Z,994.6
2018-04-24T05:18:06.130Z,994.7
2018-04-24T05:19:06.824Z,994.6
2018-04-24T05:20:07.564Z,994.6
2018-04-24T05:21:08.142Z,994.6
2018-04-24T05:22:08.802Z,994.6
2018-04-24T05:23:09.465Z,994.7
2018-04-24T05:24:10.163Z,994.7
2018-04-24T05:25:11.072Z,994.7
2018-04-24T05:26:11.733Z,994.7
2018-04-24T05:27:12.395Z,994.7
2018-04-24T05:28:13.054Z,994.7
2018-04-24T05:29:13.716Z,994.7
2018-04-24T05:30:14.377Z,994.7
2018-04-24T05:31:15.040Z,994.7
2018-04-24T05:32:15.696Z,994.7
2018-04-24T05:33:16.358Z,994.7
2018-04-24T05:34:17.019Z,994.7
2018-04-24T05:35:17.679Z,994.7
2018-04-24T05:36:18.343Z,994.7
2018-04-24T05:37:19.001Z,994.7
2018-04-24T05:38:19.660Z,994.6
2018-04-24T05:39:20.320Z,994.6
2018-04-24T05:40:20.981Z,994.6
2018-04-24T05:41:21.643Z,994.6
2018-04-24T05:42:22.308Z,994.6
2018-04-24T05:43:22.965Z,994.5
2018-04-24T05:44:23.626Z,994.5
2018-04-24T05:45:24.306Z,994.5
2018-04-24T05:46:24.986Z,994.6
2018-04-24T05:47:25.648Z,994.6
2018-04-24T05:48:26.310Z,994.6
2018-04-24T05:49:26.972Z,994.6
2018-04-24T05:50:27.672Z,994.6
2018-04-24T05:51:28.333Z,994.6
2018-04-24T05:52:28.994Z,994.7
2018-04-24T05:53:29.656Z,994.7
2018-04-24T05:54:30.317Z,994.7
2018-04-24T05:55:30.979Z,994.7
2018-04-24T05:56:31.641Z,994.6
2018-04-24T05:57:32.303Z,994.6
2018-04-24T05:58:32.967Z,994.6
2018-04-24T05:59:33.628Z,994.6
2018-04-24T06:00:34.290Z,994.6
2018-04-24T06:01:34.951Z,994.6
2018-04-24T06:02:35.613Z,994.6
2018-04-24T06:03:36.275Z,994.6
2018-04-24T06:04:36.936Z,994.6
2018-04-24T06:05:37.599Z,994.6
2018-04-24T06:06:38.263Z,994.5
2018-04-24T06:07:38.925Z,994.6
2018-04-24T06:08:39.650Z,994.6
2018-04-24T06:09:40.250Z,994.6
2018-04-24T06:10:40.912Z,994.6
2018-04-24T06:11:41.574Z,994.6
2018-04-24T06:12:42.261Z,994.6
2018-04-24T06:13:42.899Z,994.7
2018-04-24T06:14:43.563Z,994.7
2018-04-24T06:15:44.225Z,994.8
2018-04-24T06:16:44.887Z,994.8
2018-04-24T06:17:45.548Z,994.8
2018-04-24T06:18:46.212Z,994.8
2018-04-24T06:19:46.874Z,994.8
2018-04-24T06:20:47.536Z,994.8
2018-04-24T06:21:48.199Z,994.8
2018-04-24T06:22:48.862Z,994.8
2018-04-24T06:23:49.526Z,994.8
2018-04-24T06:24:50.190Z,994.8
2018-04-24T06:25:50.852Z,994.8
2018-04-24T06:26:51.513Z,994.8
2018-04-24T06:27:52.177Z,994.8
2018-04-24T06:28:52.839Z,994.8
2018-04-24T06:29:53.500Z,994.8
2018-04-24T06:30:54.164Z,994.9
2018-04-24T06:31:54.830Z,994.8
2018-04-24T06:32:55.492Z,994.8
2018-04-24T06:33:56.154Z,994.9
2018-04-24T06:34:56.817Z,994.8
2018-04-24T06:35:57.536Z,994.9
2018-04-24T06:36:58.146Z,994.8
2018-04-24T06:37:58.809Z,994.9
2018-04-24T06:38:59.473Z,994.9
2018-04-24T06:40:00.138Z,994.9
2018-04-24T06:41:00.807Z,995.0
2018-04-24T06:42:01.470Z,995.0
2018-04-24T06:43:02.144Z,995.1
2018-04-24T06:44:02.839Z,995.1
2018-04-24T06:45:03.536Z,995.1
2018-04-24T06:46:04.170Z,995.2
2018-04-24T06:47:04.836Z,995.1
2018-04-24T06:48:05.503Z,995.1
2018-04-24T06:49:06.170Z,995.1
2018-04-24T06:50:06.836Z,995.1
2018-04-24T06:51:07.504Z,995.1
2018-04-24T06:52:08.172Z,995.1
2018-04-24T06:53:08.874Z,995.1
2018-04-24T06:54:09.509Z,995.2
2018-04-24T06:55:10.212Z,995.2
2018-04-24T06:56:10.928Z,995.1
2018-04-24T06:57:11.595Z,995.2
2018-04-24T06:58:12.263Z,995.1
2018-04-24T06:59:12.932Z,995.1
2018-04-24T07:00:13.598Z,995.2
2018-04-24T07:01:14.265Z,995.1
2018-04-24T07:02:15.135Z,995.1
2018-04-24T07:03:15.803Z,995.1
2018-04-24T07:04:16.471Z,995.1
2018-04-24T07:05:17.137Z,995.1
2018-04-24T07:06:18.129Z,995.1
2018-04-24T07:07:18.722Z,995.1
2018-04-24T07:08:19.390Z,995.2
2018-04-24T07:09:20.062Z,995.2
2018-04-24T07:10:20.729Z,995.2
2018-04-24T07:11:21.401Z,995.2
2018-04-24T07:12:22.066Z,995.2
2018-04-24T07:13:22.733Z,995.2
2018-04-24T07:14:23.400Z,995.2
2018-04-24T07:15:24.068Z,995.2
2018-04-24T07:16:24.736Z,995.3
2018-04-24T07:17:25.403Z,995.2
2018-04-24T07:18:26.070Z,995.2
2018-04-24T07:19:26.739Z,995.2
2018-04-24T07:20:27.408Z,995.4
2018-04-24T07:21:28.076Z,995.3
2018-04-24T07:22:28.746Z,995.3
2018-04-24T07:23:29.414Z,995.3
2018-04-24T07:24:30.083Z,995.3
2018-04-24T07:25:30.751Z,995.3
2018-04-24T07:26:31.417Z,995.3
2018-04-24T07:27:32.086Z,995.4
2018-04-24T07:28:32.755Z,995.3
2018-04-24T07:29:33.424Z,995.3
2018-04-24T07:30:34.093Z,995.3
2018-04-24T07:31:34.760Z,995.3
2018-04-24T07:32:35.434Z,995.4
2018-04-24T07:33:36.135Z,995.4
2018-04-24T07:34:36.803Z,995.4
2018-04-24T07:35:37.472Z,995.4
2018-04-24T07:36:38.177Z,995.4
2018-04-24T07:37:38.880Z,995.4
2018-04-24T07:38:39.550Z,995.3
2018-04-24T07:39:40.220Z,995.3
2018-04-24T07:40:40.889Z,995.4
2018-04-24T07:41:41.557Z,995.3
2018-04-24T07:42:42.225Z,995.3
2018-04-24T07:43:42.920Z,995.4
2018-04-24T07:44:43.560Z,995.2
2018-04-24T07:45:44.230Z,995.4
2018-04-24T07:46:44.945Z,995.3
2018-04-24T07:47:45.568Z,995.4
2018-04-24T07:48:46.231Z,995.5
2018-04-24T07:49:46.898Z,995.3
2018-04-24T07:50:47.567Z,995.4
2018-04-24T07:51:48.240Z,995.4
2018-04-24T07:52:48.901Z,995.4
2018-04-24T07:53:49.569Z,995.4
2018-04-24T07:54:50.235Z,995.4
2018-04-24T07:55:50.936Z,995.4
2018-04-24T07:56:51.604Z,995.4
2018-04-24T07:57:52.275Z,995.4
2018-04-24T07:58:52.939Z,995.3
2018-04-24T07:59:53.606Z,995.3
2018-04-24T08:00:54.273Z,995.3
2018-04-24T08:01:54.945Z,995.4
2018-04-24T08:02:55.612Z,995.3
2018-04-24T08:03:56.281Z,995.3
2018-04-24T08:04:56.948Z,995.3
2018-04-24T08:05:57.615Z,995.3
2018-04-24T08:06:58.282Z,995.3
2018-04-24T08:07:58.950Z,995.3
2018-04-24T08:08:59.623Z,995.3
2018-04-24T08:10:00.294Z,995.3
2018-04-24T08:11:00.962Z,995.3
2018-04-24T08:12:01.630Z,995.3
2018-04-24T08:13:02.301Z,995.3
2018-04-24T08:14:02.969Z,995.3
2018-04-24T08:15:03.637Z,995.3
2018-04-24T08:16:04.303Z,995.4
2018-04-24T08:17:04.973Z,995.3
2018-04-24T08:18:05.641Z,995.3
2018-04-24T08:19:06.343Z,995.2
2018-04-24T08:20:07.012Z,995.3
2018-04-24T08:21:07.681Z,995.3
2018-04-24T08:22:08.353Z,995.4
2018-04-24T08:23:09.057Z,995.3
2018-04-24T08:24:09.727Z,995.3
2018-04-24T08:25:10.393Z,995.4
2018-04-24T08:26:11.069Z,995.2
2018-04-24T08:27:11.731Z,995.3
2018-04-24T08:28:12.396Z,995.3
2018-04-24T08:29:13.064Z,995.3
2018-04-24T08:30:13.735Z,995.3
2018-04-24T08:31:14.404Z,995.4
2018-04-24T08:32:15.075Z,995.3
2018-04-24T08:33:15.743Z,995.3
2018-04-24T08:34:16.413Z,995.5
2018-04-24T08:35:17.077Z,995.3
2018-04-24T08:36:17.750Z,995.3
2018-04-24T08:37:18.458Z,995.4
2018-04-24T08:38:19.128Z,995.5
2018-04-24T08:39:19.832Z,995.4
2018-04-24T08:40:20.503Z,995.4
2018-04-24T08:41:21.170Z,995.3
2018-04-24T08:42:21.837Z,995.3
2018-04-24T08:43:22.504Z,995.4
2018-04-24T08:44:23.172Z,995.4
2018-04-24T08:45:23.840Z,995.3
2018-04-24T08:46:24.511Z,995.3
2018-04-24T08:47:25.176Z,995.3
2018-04-24T08:48:25.846Z,995.3
2018-04-24T08:49:26.517Z,995.3
2018-04-24T08:50:27.221Z,995.2
2018-04-24T08:51:27.889Z,995.3
2018-04-24T08:52:28.558Z,995.3
2018-04-24T08:53:29.226Z,995.3
2018-04-24T08:54:29.896Z,995.2
2018-04-24T08:55:30.563Z,995.3
2018-04-24T08:56:31.233Z,995.3
2018-04-24T08:57:31.903Z,995.3
2018-04-24T08:58:32.570Z,995.2
2018-04-24T08:59:33.241Z,995.3
2018-04-24T09:00:33.906Z,995.2
2018-04-24T09:01:34.575Z,995.3
2018-04-24T09:02:35.245Z,995.4
2018-04-24T09:03:35.913Z,995.4
2018-04-24T09:04:36.585Z,995.4
2018-04-24T09:05:37.252Z,995.3
2018-04-24T09:06:37.921Z,995.3
2018-04-24T09:07:38.594Z,995.3
2018-04-24T09:08:39.359Z,995.3
2018-04-24T09:09:39.967Z,995.3
2018-04-24T09:10:40.636Z,995.3
2018-04-24T09:11:41.305Z,995.3
2018-04-24T09:12:41.977Z,995.4
2018-04-24T09:13:42.650Z,995.3
2018-04-24T09:14:43.316Z,995.3
2018-04-24T09:15:43.984Z,995.3
2018-04-24T09:16:44.653Z,995.4
2018-04-24T09:17:45.322Z,995.4
2018-04-24T09:18:45.993Z,995.4
2018-04-24T09:19:46.662Z,995.4
2018-04-24T09:20:47.332Z,995.4
2018-04-24T09:21:48.005Z,995.4
2018-04-24T09:22:48.721Z,995.4
2018-04-24T09:23:49.392Z,995.4
2018-04-24T09:24:50.063Z,995.5
2018-04-24T09:25:50.734Z,995.5
2018-04-24T09:26:51.408Z,995.4
2018-04-24T09:27:52.112Z,995.4
2018-04-24T09:28:52.780Z,995.4
2018-04-24T09:29:53.453Z,995.5
2018-04-24T09:30:54.154Z,995.4
2018-04-24T09:31:54.824Z,995.4
2018-04-24T09:32:55.495Z,995.3
2018-04-24T09:33:56.165Z,995.3
2018-04-24T09:34:56.833Z,995.3
2018-04-24T09:35:57.501Z,995.3
2018-04-24T09:36:58.169Z,995.3
2018-04-24T09:37:59.074Z,995.3
2018-04-24T09:38:59.783Z,995.4
2018-04-24T09:40:00.411Z,995.5
2018-04-24T09:41:01.084Z,995.3
2018-04-24T09:42:01.752Z,995.3
2018-04-24T09:43:02.418Z,995.4
2018-04-24T09:44:03.159Z,995.4
2018-04-24T09:45:03.754Z,995.4
2018-04-24T09:46:04.510Z,995.3
2018-04-24T09:47:05.092Z,995.3
2018-04-24T09:48:05.759Z,995.2
2018-04-24T09:49:06.429Z,995.3
2018-04-24T09:50:07.133Z,995.2
2018-04-24T09:51:07.810Z,995.2
2018-04-24T09:52:08.508Z,995.1
2018-04-24T09:53:09.173Z,995.2
2018-04-24T09:54:09.841Z,995.2
2018-04-24T09:55:10.508Z,995.2
2018-04-24T09:56:11.181Z,995.2
2018-04-24T09:57:11.883Z,995.2
2018-04-24T09:58:12.551Z,995.2
2018-04-24T09:59:13.218Z,995.2
2018-04-24T10:00:13.925Z,995.1
2018-04-24T10:01:14.590Z,995.0
2018-04-24T10:02:15.320Z,995.1
2018-04-24T10:03:15.924Z,995.1
2018-04-24T10:04:16.628Z,995.0
2018-04-24T10:05:17.296Z,995.0
2018-04-24T10:06:17.965Z,995.0
2018-04-24T10:07:18.630Z,995.0
2018-04-24T10:08:19.297Z,995.1
2018-04-24T10:09:19.963Z,995.0
2018-04-24T10:10:20.630Z,995.0
2018-04-24T10:11:21.297Z,994.9
2018-04-24T10:12:21.964Z,995.0
2018-04-24T10:13:22.681Z,995.0
2018-04-24T10:14:23.300Z,995.0
2018-04-24T10:15:23.968Z,995.0
2018-04-24T10:16:24.637Z,995.0
2018-04-24T10:17:25.340Z,995.0
2018-04-24T10:18:26.010Z,994.9
2018-04-24T10:19:26.711Z,995.0
2018-04-24T10:20:27.379Z,995.1
2018-04-24T10:21:28.047Z,995.0
2018-04-24T10:22:28.715Z,994.9
2018-04-24T10:23:29.381Z,995.0
2018-04-24T10:24:30.048Z,995.0
2018-04-24T10:25:30.716Z,995.0
2018-04-24T10:26:31.385Z,995.1
2018-04-24T10:27:32.051Z,995.1
2018-04-24T10:28:32.722Z,995.0
2018-04-24T10:29:33.388Z,995.0
2018-04-24T10:30:34.057Z,995.0
2018-04-24T10:31:34.722Z,995.0
2018-04-24T10:32:35.426Z,994.9
2018-04-24T10:33:36.094Z,995.0
2018-04-24T10:34:36.761Z,995.0
2018-04-24T10:35:37.428Z,994.9
2018-04-24T10:36:38.097Z,994.9
2018-04-24T10:37:38.767Z,994.9
2018-04-24T10:38:39.435Z,994.9
2018-04-24T10:39:40.101Z,994.9
2018-04-24T10:40:40.768Z,994.9
2018-04-24T10:41:41.435Z,994.8
2018-04-24T10:42:42.101Z,994.8
2018-04-24T10:43:42.777Z,994.8
2018-04-24T10:44:43.435Z,994.9
2018-04-24T10:45:44.104Z,994.8
2018-04-24T10:46:44.833Z,994.8
2018-04-24T10:47:45.441Z,994.9
2018-04-24T10:48:46.107Z,994.9
2018-04-24T10:49:46.780Z,994.8
2018-04-24T10:50:47.442Z,994.7
2018-04-24T10:51:48.187Z,994.7
2018-04-24T10:52:48.776Z,994.8
2018-04-24T10:53:49.495Z,994.7
2018-04-24T10:54:50.163Z,994.7
2018-04-24T10:55:50.835Z,994.7
2018-04-24T10:56:51.508Z,994.7
2018-04-24T10:57:52.172Z,994.7
2018-04-24T10:58:52.841Z,994.7
2018-04-24T10:59:53.507Z,994.7
2018-04-24T11:00:54.174Z,994.7
2018-04-24T11:01:54.842Z,994.8
2018-04-24T11:02:55.513Z,994.7
2018-04-24T11:03:56.216Z,994.7
2018-04-24T11:04:56.885Z,994.8
2018-04-24T11:05:57.591Z,994.8
2018-04-24T11:06:58.258Z,994.8
2018-04-24T11:07:58.925Z,994.9
2018-04-24T11:08:59.592Z,994.8
2018-04-24T11:10:00.260Z,994.8
2018-04-24T11:11:00.928Z,994.8
2018-04-24T11:12:01.597Z,994.8
2018-04-24T11:13:02.267Z,994.8
2018-04-24T11:14:02.937Z,994.7
2018-04-24T11:15:03.611Z,994.8
2018-04-24T11:16:04.274Z,994.8
2018-04-24T11:17:05.019Z,994.7
2018-04-24T11:18:05.608Z,994.8
2018-04-24T11:19:06.279Z,994.7
2018-04-24T11:20:06.945Z,994.7
2018-04-24T11:21:07.612Z,994.7
2018-04-24T11:22:08.280Z,994.7
2018-04-24T11:23:08.950Z,994.7
2018-04-24T11:24:09.619Z,994.7
2018-04-24T11:25:10.286Z,994.7
2018-04-24T11:26:10.953Z,994.7
2018-04-24T11:27:11.662Z,994.6
2018-04-24T11:28:12.325Z,994.7
2018-04-24T11:29:12.993Z,994.6
2018-04-24T11:30:13.688Z,994.6
2018-04-24T11:31:14.331Z,994.6
2018-04-24T11:32:14.998Z,994.6
2018-04-24T11:33:15.665Z,994.6
2018-04-24T11:34:16.443Z,994.6
2018-04-24T11:35:17.001Z,994.6
2018-04-24T11:36:17.671Z,994.6
2018-04-24T11:37:18.338Z,994.5
2018-04-24T11:38:19.043Z,994.6
2018-04-24T11:39:19.795Z,994.6
2018-04-24T11:40:20.500Z,994.5
2018-04-24T11:41:21.176Z,994.6
2018-04-24T11:42:21.835Z,994.6
2018-04-24T11:43:22.504Z,994.6
2018-04-24T11:44:23.207Z,994.7
2018-04-24T11:45:23.875Z,994.5
2018-04-24T11:46:24.543Z,994.6
2018-04-24T11:47:25.207Z,994.5
2018-04-24T11:48:25.879Z,994.5
2018-04-24T11:49:26.547Z,994.6
2018-04-24T11:50:27.215Z,994.6
2018-04-24T11:51:27.879Z,994.6
2018-04-24T11:52:28.547Z,994.5
2018-04-24T11:53:29.219Z,994.5
2018-04-24T11:54:29.919Z,994.5
2018-04-24T11:55:30.587Z,994.5
2018-04-24T11:56:31.289Z,994.5
2018-04-24T11:57:31.995Z,994.5
2018-04-24T11:58:32.664Z,994.6
2018-04-24T11:59:33.363Z,994.5
2018-04-24T12:00:34.035Z,994.5
2018-04-24T12:01:34.699Z,994.5
2018-04-24T12:02:35.408Z,994.5
2018-04-24T12:03:36.032Z,994.5
2018-04-24T12:04:36.700Z,994.6
2018-04-24T12:05:37.369Z,994.5
2018-04-24T12:06:38.034Z,994.5
2018-04-24T12:07:38.700Z,994.5
2018-04-24T12:08:39.366Z,994.5
2018-04-24T12:09:40.035Z,994.5
2018-04-24T12:10:40.701Z,994.4
2018-04-24T12:11:41.366Z,994.5
2018-04-24T12:12:42.034Z,994.5
2018-04-24T12:13:42.715Z,994.5
2018-04-24T12:14:43.405Z,994.5
2018-04-24T12:15:44.104Z,994.5
2018-04-24T12:16:44.739Z,994.5
2018-04-24T12:17:45.406Z,994.5
2018-04-24T12:18:46.072Z,994.5
2018-04-24T12:19:46.739Z,994.5
2018-04-24T12:20:47.408Z,994.5
2018-04-24T12:21:48.111Z,994.5
2018-04-24T12:22:48.782Z,994.5
2018-04-24T12:23:49.444Z,994.5
2018-04-24T12:24:50.110Z,994.4
2018-04-24T12:25:50.781Z,994.5
2018-04-24T12:26:51.445Z,994.5
2018-04-24T12:27:52.111Z,994.5
2018-04-24T12:28:52.780Z,994.4
2018-04-24T12:29:53.448Z,994.5
2018-04-24T12:30:54.112Z,994.5
2018-04-24T12:31:54.818Z,994.4
2018-04-24T12:32:55.485Z,994.4
2018-04-24T12:33:56.154Z,994.4
2018-04-24T12:34:56.870Z,994.4
2018-04-24T12:35:57.537Z,994.4
2018-04-24T12:36:58.204Z,994.5
2018-04-24T12:37:58.873Z,994.5
2018-04-24T12:38:59.541Z,994.5
2018-04-24T12:40:00.211Z,994.5
2018-04-24T12:41:00.881Z,994.4
2018-04-24T12:42:01.580Z,994.5
2018-04-24T12:43:02.246Z,994.4
2018-04-24T12:44:02.914Z,994.4
2018-04-24T12:45:03.584Z,994.4
2018-04-24T12:46:04.255Z,994.4
2018-04-24T12:47:04.957Z,994.4
2018-04-24T12:48:05.626Z,994.4
2018-04-24T12:49:06.328Z,994.4
2018-04-24T12:50:06.995Z,994.4
2018-04-24T12:51:07.662Z,994.4
2018-04-24T12:52:08.329Z,994.3
2018-04-24T12:53:08.998Z,994.3
2018-04-24T12:54:09.669Z,994.3
2018-04-24T12:55:10.334Z,994.3
2018-04-24T12:56:11.001Z,994.2
2018-04-24T12:57:11.667Z,994.3
2018-04-24T12:58:12.334Z,994.2
2018-04-24T12:59:13.013Z,994.2
2018-04-24T13:00:13.668Z,994.2
2018-04-24T13:01:14.335Z,994.3